Time;durP1;ratioP1;P1;durP2;ratioP2;P2;SDS_P1;SDS_P2;PMS_P1;PMS_P2;Temp;Humidity;BMP_temperature;BMP_pressure;BME280_temperature;BME280_humidity;BME280_pressure;Samples;Min_cycle;Max_cycle;Signal;HPM_P1;HPM_P2
2022/06/22 00:02:30;;;;;;;20.58;12.10;;;11.80;99.90;;;;;;5073408;28;20128;-65
2022/06/22 00:05:05;;;;;;;23.60;12.40;;;11.80;99.90;;;;;;5056155;28;20052;-65
2022/06/22 00:07:42;;;;;;;12.60;9.00;;;11.90;99.90;;;;;;5071582;28;20442;-65
2022/06/22 00:10:08;;;;;;;12.60;9.15;;;11.80;99.90;;;;;;5071570;28;20038;-66
2022/06/22 00:12:34;;;;;;;17.33;10.88;;;11.60;99.90;;;;;;5070095;28;20123;-65
2022/06/22 00:15:03;;;;;;;16.83;11.38;;;11.50;99.90;;;;;;5070515;28;20055;-70
2022/06/22 00:17:38;;;;;;;13.65;9.73;;;11.40;99.90;;;;;;5040809;28;20041;-68
2022/06/22 00:20:23;;;;;;;15.25;10.50;;;11.40;99.90;;;;;;5059215;28;20044;-65
2022/06/22 00:22:55;;;;;;;22.05;11.63;;;11.30;99.90;;;;;;5075489;28;20119;-66
2022/06/22 00:25:31;;;;;;;20.27;11.50;;;11.30;99.90;;;;;;5076403;28;20119;-67
2022/06/22 00:28:31;;;;;;;22.83;13.60;;;11.30;99.90;;;;;;5059752;28;20476;-66
2022/06/22 00:31:16;;;;;;;14.40;10.10;;;11.30;99.90;;;;;;5035470;28;20481;-65
2022/06/22 00:34:10;;;;;;;16.98;10.77;;;11.40;99.90;;;;;;5070350;28;20047;-66
2022/06/22 00:36:42;;;;;;;14.63;9.13;;;11.20;99.90;;;;;;5076115;28;20043;-66
2022/06/22 00:39:21;;;;;;;;;;;11.10;99.90;;;;;;5074149;28;20036;-66
2022/06/22 00:41:59;;;;;;;178.88;13.63;;;11.10;99.90;;;;;;5074233;28;19916;-67
2022/06/22 00:44:31;;;;;;;16.48;10.95;;;11.00;99.90;;;;;;5064368;28;20055;-65
2022/06/22 00:47:04;;;;;;;18.35;12.23;;;11.00;99.90;;;;;;5076873;28;20048;-65
2022/06/22 00:49:31;;;;;;;14.07;10.50;;;11.00;99.90;;;;;;5073193;28;20084;-69
2022/06/22 00:52:05;;;;;;;42.40;11.80;;;10.90;99.90;;;;;;5077208;28;20108;-65
2022/06/22 00:54:35;;;;;;;151.02;12.95;;;10.90;99.90;;;;;;5059107;28;20124;-65
2022/06/22 00:57:01;;;;;;;23.52;8.15;;;10.80;99.90;;;;;;5068593;28;20055;-68
2022/06/22 00:59:47;;;;;;;178.43;15.00;;;10.60;99.90;;;;;;5054234;28;20043;-67
2022/06/22 01:02:40;;;;;;;48.05;12.38;;;10.60;99.90;;;;;;5057600;28;20423;-66
2022/06/22 01:05:25;;;;;;;22.55;13.63;;;10.50;99.90;;;;;;5071231;28;20044;-66
2022/06/22 01:08:13;;;;;;;21.35;12.55;;;10.60;99.90;;;;;;5071178;28;20062;-65
2022/06/22 01:10:54;;;;;;;15.40;11.10;;;10.70;99.90;;;;;;5070217;28;20036;-66
2022/06/22 01:13:46;;;;;;;17.52;11.18;;;10.70;99.90;;;;;;5059383;28;20478;-66
2022/06/22 01:16:31;;;;;;;12.85;9.00;;;10.70;99.90;;;;;;5055652;28;20102;-65
2022/06/22 01:19:15;;;;;;;60.15;14.15;;;10.70;99.90;;;;;;5071629;28;20037;-66
2022/06/22 01:21:46;;;;;;;164.07;9.93;;;10.40;99.90;;;;;;5065846;28;20050;-67
2022/06/22 01:24:32;;;;;;;60.95;6.82;;;10.20;99.90;;;;;;5062807;28;20043;-71
2022/06/22 01:27:17;;;;;;;10.57;7.15;;;10.20;99.90;;;;;;5071025;28;20119;-66
2022/06/22 01:29:56;;;;;;;22.90;6.43;;;10.20;99.90;;;;;;5069513;28;20044;-66
2022/06/22 01:32:29;;;;;;;151.48;15.32;;;10.20;99.90;;;;;;5073717;28;20041;-66
2022/06/22 01:35:01;;;;;;;41.88;11.77;;;10.10;99.90;;;;;;5070882;28;20056;-65
2022/06/22 01:37:30;;;;;;;17.08;11.07;;;10.10;99.90;;;;;;5074760;28;20389;-65
2022/06/22 01:40:13;;;;;;;22.40;11.95;;;10.20;99.90;;;;;;5064698;28;20077;-65
2022/06/22 01:43:04;;;;;;;15.27;8.90;;;10.20;99.90;;;;;;5069833;28;20398;-65
2022/06/22 01:45:44;;;;;;;21.95;12.55;;;10.20;99.90;;;;;;5072591;28;20043;-67
2022/06/22 01:48:13;;;;;;;148.77;14.57;;;10.10;99.90;;;;;;5071388;28;20043;-65
2022/06/22 01:50:54;;;;;;;23.13;13.27;;;10.10;99.90;;;;;;5069610;28;20049;-66
2022/06/22 01:53:29;;;;;;;23.40;13.13;;;10.20;99.90;;;;;;5052709;28;20649;-65
2022/06/22 01:56:01;;;;;;;17.42;12.48;;;10.20;99.90;;;;;;5052772;28;20177;-65
2022/06/22 01:58:34;;;;;;;118.18;12.80;;;10.10;99.90;;;;;;5066312;28;20032;-65
2022/06/22 02:01:13;;;;;;;24.70;8.38;;;10.00;99.90;;;;;;5073689;28;20039;-71
2022/06/22 02:04:07;;;;;;;15.75;9.77;;;9.90;99.90;;;;;;5072417;28;20055;-65
2022/06/22 02:10:26;;;;;;;17.08;10.75;;;9.90;99.90;;;;;;5059097;28;20396;-65
2022/06/22 02:13:28;;;;;;;14.43;9.02;;;9.90;99.90;;;;;;5038218;28;20068;-68
2022/06/22 02:16:21;;;;;;;12.18;7.25;;;9.80;99.90;;;;;;5084734;28;20038;-66
2022/06/22 02:18:56;;;;;;;11.18;6.95;;;9.80;99.90;;;;;;5070626;28;20043;-66
2022/06/22 02:21:27;;;;;;;53.97;10.55;;;9.70;99.90;;;;;;5071196;28;20051;-66
2022/06/22 02:24:03;;;;;;;12.95;7.43;;;9.70;99.90;;;;;;5069279;28;20154;-66
2022/06/22 02:26:52;;;;;;;9.82;7.45;;;9.60;99.90;;;;;;5060125;28;20139;-65
2022/06/22 02:29:25;;;;;;;15.55;10.13;;;9.60;99.90;;;;;;5071036;28;20504;-65
2022/06/22 02:31:55;;;;;;;14.68;10.32;;;9.50;99.90;;;;;;5075052;28;20082;-65
2022/06/22 02:34:21;;;;;;;18.02;10.95;;;9.50;99.90;;;;;;5076721;28;20503;-66
2022/06/22 02:36:50;;;;;;;18.20;9.52;;;9.40;99.90;;;;;;5075992;28;20051;-66
2022/06/22 02:39:18;;;;;;;13.10;8.15;;;9.40;99.90;;;;;;5073452;28;20037;-65
2022/06/22 02:44:33;;;;;;;10.32;7.30;;;9.40;99.90;;;;;;5072167;28;20040;-65
2022/06/22 02:47:16;;;;;;;25.25;4.70;;;9.40;99.90;;;;;;5084619;28;20048;-65
2022/06/22 02:50:07;;;;;;;7.40;4.22;;;9.30;99.90;;;;;;5054504;28;20040;-65
2022/06/22 02:52:49;;;;;;;7.63;4.55;;;9.30;99.90;;;;;;5078909;28;20078;-65
2022/06/22 02:55:22;;;;;;;12.30;6.40;;;9.30;99.90;;;;;;5073825;28;20036;-67
2022/06/22 02:57:51;;;;;;;22.85;5.90;;;9.30;99.90;;;;;;5069607;28;20064;-65
2022/06/22 03:00:20;;;;;;;165.30;12.27;;;9.30;99.90;;;;;;5072562;28;20040;-66
2022/06/22 03:02:48;;;;;;;156.18;11.98;;;9.30;99.90;;;;;;5053573;28;20091;-67
2022/06/22 03:05:16;;;;;;;128.68;10.68;;;9.20;99.90;;;;;;5071581;28;20044;-66
2022/06/22 03:07:50;;;;;;;121.78;11.45;;;9.20;99.90;;;;;;5052361;28;20127;-66
2022/06/22 03:10:43;;;;;;;22.33;7.88;;;9.20;99.90;;;;;;5055602;28;20044;-65
2022/06/22 03:13:16;;;;;;;12.15;7.80;;;9.10;99.90;;;;;;5075224;28;20385;-65
2022/06/22 03:15:43;;;;;;;15.82;8.23;;;9.10;99.90;;;;;;5080609;28;20630;-67
2022/06/22 03:18:15;;;;;;;23.38;7.18;;;9.10;99.90;;;;;;5078244;28;20047;-65
2022/06/22 03:20:50;;;;;;;18.15;8.23;;;9.00;99.90;;;;;;5059280;28;20048;-66
2022/06/22 03:23:26;;;;;;;64.18;9.93;;;9.00;99.90;;;;;;5052110;28;20074;-65
2022/06/22 03:26:12;;;;;;;27.30;8.40;;;9.00;99.90;;;;;;5053094;28;20507;-66
2022/06/22 03:28:45;;;;;;;4.88;4.30;;;8.90;99.90;;;;;;5078747;28;20040;-66
2022/06/22 03:31:20;;;;;;;8.88;5.47;;;8.90;99.90;;;;;;5069494;28;20101;-65
2022/06/22 03:33:50;;;;;;;11.60;7.75;;;8.90;99.90;;;;;;5057239;28;20059;-65
2022/06/22 03:36:30;;;;;;;12.82;8.07;;;8.90;99.90;;;;;;5049885;28;20075;-66
2022/06/22 03:39:03;;;;;;;6.45;5.22;;;9.00;99.90;;;;;;5055683;28;20366;-66
2022/06/22 03:41:33;;;;;;;7.07;5.70;;;9.10;99.90;;;;;;5056687;28;20051;-66
2022/06/22 03:44:12;;;;;;;9.68;5.60;;;9.10;99.90;;;;;;5065382;28;20105;-66
2022/06/22 03:46:50;;;;;;;8.77;6.95;;;9.10;99.90;;;;;;5069150;28;20041;-66
2022/06/22 03:49:39;;;;;;;57.72;6.82;;;9.10;99.90;;;;;;5045372;28;20063;-66
2022/06/22 03:52:18;;;;;;;9.63;6.18;;;9.00;99.90;;;;;;5070448;28;20062;-66
2022/06/22 03:55:07;;;;;;;8.15;6.43;;;9.10;99.90;;;;;;5057189;28;20124;-68
2022/06/22 03:57:37;;;;;;;10.80;8.02;;;9.20;99.90;;;;;;5065666;28;20039;-66
2022/06/22 04:00:05;;;;;;;5.65;4.68;;;9.30;99.90;;;;;;5069870;28;20044;-66
2022/06/22 04:02:32;;;;;;;4.63;4.15;;;9.40;99.90;;;;;;5066190;28;20052;-66
2022/06/22 04:05:00;;;;;;;6.10;5.50;;;9.30;99.90;;;;;;5068397;28;20392;-66
2022/06/22 04:07:34;;;;;;;8.02;5.78;;;9.40;99.90;;;;;;5042597;28;20523;-66
2022/06/22 04:10:01;;;;;;;7.47;6.00;;;9.40;99.90;;;;;;5049478;28;20052;-68
2022/06/22 04:12:39;;;;;;;9.63;6.95;;;9.50;99.90;;;;;;5069920;28;20047;-66
2022/06/22 04:15:30;;;;;;;11.18;7.65;;;9.60;99.90;;;;;;5068097;28;20508;-65
2022/06/22 04:18:07;;;;;;;7.47;6.13;;;9.80;99.90;;;;;;5068483;28;20041;-66
2022/06/22 04:20:51;;;;;;;17.48;10.70;;;9.80;99.90;;;;;;5053410;28;20549;-66
2022/06/22 04:23:26;;;;;;;19.13;11.95;;;9.90;99.90;;;;;;5055592;28;20111;-66
2022/06/22 04:25:56;;;;;;;42.63;13.82;;;10.00;99.90;;;;;;5074313;28;20128;-67
2022/06/22 04:28:24;;;;;;;86.72;14.93;;;10.20;99.90;;;;;;5065541;28;20119;-67
2022/06/22 04:30:54;;;;;;;107.47;15.27;;;10.30;99.90;;;;;;5075386;28;20075;-66
2022/06/22 04:33:29;;;;;;;52.45;13.60;;;10.40;99.90;;;;;;5064715;28;20101;-70
2022/06/22 04:36:37;;;;;;;40.08;13.50;;;10.50;99.90;;;;;;5069382;28;20052;-66
2022/06/22 04:39:20;;;;;;;21.48;12.13;;;10.60;99.90;;;;;;5065461;28;20481;-66
2022/06/22 04:41:48;;;;;;;53.30;12.50;;;10.60;99.90;;;;;;5067888;28;20053;-67
2022/06/22 04:44:20;;;;;;;15.30;10.55;;;10.60;99.90;;;;;;5079934;28;20032;-66
2022/06/22 04:46:50;;;;;;;14.93;10.27;;;10.70;99.90;;;;;;5047253;28;20094;-69
2022/06/22 04:49:35;;;;;;;15.38;10.82;;;10.70;99.90;;;;;;5070395;28;20036;-66
2022/06/22 04:52:12;;;;;;;15.43;10.88;;;10.80;99.90;;;;;;5066520;28;20531;-67
2022/06/22 04:54:40;;;;;;;16.65;11.57;;;10.90;99.90;;;;;;5084242;28;20052;-67
2022/06/22 04:57:18;;;;;;;19.20;12.60;;;11.00;99.90;;;;;;5075031;28;20518;-67
2022/06/22 04:59:45;;;;;;;19.70;12.57;;;11.20;99.90;;;;;;5084034;28;20044;-68
2022/06/22 05:02:14;;;;;;;18.17;12.30;;;11.40;99.90;;;;;;5074432;28;20053;-69
2022/06/22 05:04:44;;;;;;;18.65;12.43;;;11.50;99.90;;;;;;5073411;28;20056;-66
2022/06/22 05:07:38;;;;;;;25.15;15.15;;;11.70;99.90;;;;;;5081202;28;20032;-67
2022/06/22 05:10:20;;;;;;;26.10;14.93;;;11.90;99.90;;;;;;5067117;28;20061;-66
2022/06/22 05:12:55;;;;;;;27.05;15.73;;;12.10;99.90;;;;;;5079326;28;20044;-66
2022/06/22 05:15:28;;;;;;;28.13;16.58;;;12.30;99.90;;;;;;5083104;28;20052;-66
2022/06/22 05:17:55;;;;;;;26.40;15.75;;;12.50;99.90;;;;;;5074413;28;20445;-66
2022/06/22 05:20:42;;;;;;;27.33;16.42;;;12.60;99.90;;;;;;5061004;28;20092;-66
2022/06/22 05:23:09;;;;;;;28.27;16.15;;;12.80;99.90;;;;;;5077824;28;20076;-68
2022/06/22 05:25:36;;;;;;;24.67;15.23;;;12.90;99.90;;;;;;5066150;28;20496;-66
2022/06/22 05:28:11;;;;;;;23.95;15.10;;;13.00;99.90;;;;;;5078968;28;20373;-67
2022/06/22 05:30:46;;;;;;;23.55;15.30;;;13.20;99.90;;;;;;5068215;28;20051;-66
2022/06/22 05:33:17;;;;;;;25.55;15.15;;;13.40;99.90;;;;;;5069568;28;20083;-66
2022/06/22 05:35:48;;;;;;;27.77;14.68;;;13.60;99.90;;;;;;5072064;28;20480;-66
2022/06/22 05:38:18;;;;;;;21.33;14.80;;;13.80;99.90;;;;;;5080595;28;20098;-66
2022/06/22 05:40:46;;;;;;;22.90;14.23;;;13.90;99.90;;;;;;5059048;28;20411;-66
2022/06/22 05:43:12;;;;;;;22.08;14.63;;;14.00;99.90;;;;;;5046344;28;20117;-66
2022/06/22 05:45:50;;;;;;;22.27;14.40;;;14.20;99.90;;;;;;5047866;28;20826;-66
2022/06/22 05:48:23;;;;;;;22.52;15.73;;;14.30;99.90;;;;;;5070685;28;20083;-69
2022/06/22 05:51:03;;;;;;;22.55;15.10;;;14.50;99.90;;;;;;5069341;28;20037;-66
2022/06/22 05:53:41;;;;;;;24.45;14.55;;;14.70;99.90;;;;;;5056083;28;20044;-66
2022/06/22 05:56:13;;;;;;;23.23;15.57;;;14.80;99.90;;;;;;5072405;28;20507;-66
2022/06/22 05:59:22;;;;;;;25.17;16.48;;;15.00;99.90;;;;;;5070857;28;20077;-66
2022/06/22 06:01:56;;;;;;;26.30;19.77;;;15.20;99.90;;;;;;4992469;28;20050;-67
2022/06/22 06:04:41;;;;;;;37.65;28.80;;;15.30;99.90;;;;;;5059755;28;20473;-68
2022/06/22 06:07:40;;;;;;;26.10;22.48;;;15.50;99.90;;;;;;5069253;28;20068;-67
2022/06/22 06:10:18;;;;;;;23.60;19.75;;;15.70;99.90;;;;;;5070153;28;20041;-66
2022/06/22 06:12:57;;;;;;;22.35;18.83;;;15.80;99.90;;;;;;5076120;28;20044;-66
2022/06/22 06:15:23;;;;;;;25.15;18.42;;;15.80;99.90;;;;;;5056619;28;20071;-66
2022/06/22 06:17:57;;;;;;;21.25;15.48;;;16.00;99.90;;;;;;5076012;28;20135;-66
2022/06/22 06:20:38;;;;;;;17.88;14.65;;;16.10;99.90;;;;;;5044713;28;20045;-66
2022/06/22 06:23:26;;;;;;;15.10;12.07;;;16.20;99.90;;;;;;5071003;28;20048;-67
2022/06/22 06:28:53;;;;;;;17.13;11.75;;;16.50;99.90;;;;;;5070387;28;20554;-66
2022/06/22 06:31:33;;;;;;;16.90;12.82;;;16.60;99.90;;;;;;5064819;28;20094;-68
2022/06/22 06:34:02;;;;;;;11.73;7.95;;;16.70;99.90;;;;;;5053459;28;20040;-66
2022/06/22 06:36:36;;;;;;;16.95;9.98;;;16.80;99.90;;;;;;5042162;28;20045;-66
2022/06/22 06:39:15;;;;;;;14.40;10.48;;;16.90;99.90;;;;;;5081179;28;20036;-67
2022/06/22 06:41:47;;;;;;;18.35;11.00;;;17.00;99.90;;;;;;5049211;28;20049;-67
2022/06/22 06:44:18;;;;;;;12.75;8.93;;;17.20;99.90;;;;;;5082079;28;20040;-66
2022/06/22 06:46:53;;;;;;;18.00;9.13;;;17.30;99.90;;;;;;5057220;28;20049;-66
2022/06/22 06:49:22;;;;;;;11.90;8.98;;;17.40;99.90;;;;;;5066264;28;21157;-68
2022/06/22 06:51:55;;;;;;;15.43;9.23;;;17.50;99.90;;;;;;5068813;28;20032;-68
2022/06/22 06:54:26;;;;;;;16.98;9.38;;;17.60;99.90;;;;;;5069783;28;20044;-66
2022/06/22 06:57:04;;;;;;;12.68;9.20;;;17.70;99.90;;;;;;5059612;28;20129;-66
2022/06/22 06:59:31;;;;;;;11.23;9.10;;;17.70;99.90;;;;;;5069106;28;20044;-66
2022/06/22 07:02:04;;;;;;;12.10;8.20;;;17.80;99.90;;;;;;5067243;28;20040;-69
2022/06/22 07:04:35;;;;;;;11.52;8.50;;;18.00;99.90;;;;;;5049990;28;20065;-70
2022/06/22 07:07:37;;;;;;;12.33;7.87;;;18.00;99.90;;;;;;5009871;28;20048;-67
2022/06/22 07:10:29;;;;;;;15.05;7.90;;;18.00;99.90;;;;;;5045104;28;20292;-66
2022/06/22 07:13:07;;;;;;;10.45;7.32;;;18.10;99.90;;;;;;5046938;28;20041;-67
2022/06/22 07:15:40;;;;;;;11.27;7.57;;;18.20;99.90;;;;;;5042476;28;20544;-67
2022/06/22 07:18:29;;;;;;;12.48;6.72;;;18.10;99.90;;;;;;5026145;28;20073;-67
2022/06/22 07:21:21;;;;;;;12.70;7.53;;;18.40;99.90;;;;;;5052111;28;20424;-67
2022/06/22 07:23:52;;;;;;;15.60;8.52;;;18.50;99.90;;;;;;4999592;28;20536;-66
2022/06/22 07:26:37;;;;;;;16.60;9.35;;;18.60;99.90;;;;;;5046849;28;20045;-67
2022/06/22 07:29:14;;;;;;;13.65;9.95;;;18.70;99.90;;;;;;5055906;28;20465;-67
2022/06/22 07:31:47;;;;;;;13.88;9.00;;;18.80;99.90;;;;;;5052294;28;20041;-68
2022/06/22 07:34:20;;;;;;;15.13;8.63;;;18.90;99.90;;;;;;5050932;28;20084;-69
2022/06/22 07:36:51;;;;;;;16.15;8.77;;;19.00;99.90;;;;;;5046249;28;20095;-68
2022/06/22 07:39:47;;;;;;;14.10;8.27;;;19.10;99.90;;;;;;5032545;28;20120;-68
2022/06/22 07:42:13;;;;;;;14.50;9.07;;;19.20;99.90;;;;;;5052816;28;20048;-67
2022/06/22 07:44:41;;;;;;;15.75;9.10;;;19.20;99.90;;;;;;5052690;28;20049;-67
2022/06/22 07:47:33;;;;;;;12.20;8.52;;;19.20;99.90;;;;;;5048894;28;20482;-68
2022/06/22 07:50:25;;;;;;;14.07;8.45;;;19.20;99.90;;;;;;5042541;28;20037;-68
2022/06/22 07:53:04;;;;;;;12.13;8.05;;;19.20;99.90;;;;;;5046470;28;20055;-67
2022/06/22 07:55:57;;;;;;;11.27;8.75;;;19.40;99.90;;;;;;5039652;28;20076;-68
2022/06/22 07:58:28;;;;;;;14.02;8.27;;;19.50;99.90;;;;;;5033469;28;20040;-67
2022/06/22 08:01:02;;;;;;;11.82;8.55;;;19.60;99.90;;;;;;5038676;28;20492;-68
2022/06/22 08:03:36;;;;;;;13.52;8.98;;;19.70;99.90;;;;;;5031268;28;20513;-68
2022/06/22 08:06:07;;;;;;;13.32;8.57;;;19.80;99.90;;;;;;5045590;28;20080;-68
2022/06/22 08:08:52;;;;;;;12.02;8.52;;;19.90;99.90;;;;;;5049835;28;20045;-68
2022/06/22 08:11:30;;;;;;;14.38;8.23;;;20.00;99.90;;;;;;5044403;28;20048;-68
2022/06/22 08:14:19;;;;;;;13.10;7.90;;;20.20;99.90;;;;;;5033568;28;20529;-68
2022/06/22 08:17:09;;;;;;;10.23;6.57;;;20.20;99.90;;;;;;5049054;28;20045;-67
2022/06/22 08:19:35;;;;;;;15.93;7.90;;;20.20;99.90;;;;;;5045290;28;20486;-68
2022/06/22 08:22:06;;;;;;;13.20;7.40;;;20.30;99.90;;;;;;5031702;28;20068;-68
2022/06/22 08:24:37;;;;;;;9.77;6.53;;;20.30;99.90;;;;;;5043813;28;20044;-68
2022/06/22 08:27:04;;;;;;;11.43;5.95;;;20.50;99.90;;;;;;5050168;28;20072;-68
2022/06/22 08:29:32;;;;;;;9.80;5.55;;;20.60;99.90;;;;;;5047449;28;20053;-69
2022/06/22 08:32:10;;;;;;;12.88;7.03;;;20.80;99.90;;;;;;5034975;28;20045;-68
2022/06/22 08:34:42;;;;;;;11.23;6.50;;;20.70;99.90;;;;;;5053925;28;20044;-67
2022/06/22 08:37:17;;;;;;;11.38;7.15;;;20.70;99.90;;;;;;5052526;28;20049;-67
2022/06/22 08:39:52;;;;;;;12.55;7.57;;;20.80;99.90;;;;;;5035616;28;20048;-69
2022/06/22 08:42:42;;;;;;;11.40;7.25;;;21.00;99.90;;;;;;5053271;28;20056;-69
2022/06/22 08:45:28;;;;;;;15.18;7.32;;;21.20;99.90;;;;;;5035720;28;20041;-68
2022/06/22 08:48:33;;;;;;;14.02;8.23;;;21.30;99.90;;;;;;5052028;28;20044;-70
2022/06/22 08:51:11;;;;;;;14.30;8.27;;;21.40;99.90;;;;;;5052826;28;20044;-68
2022/06/22 08:53:52;;;;;;;15.23;8.15;;;21.50;99.90;;;;;;5053541;28;20041;-68
2022/06/22 08:56:46;;;;;;;13.15;7.53;;;21.50;99.90;;;;;;5052770;28;20048;-68
2022/06/22 08:59:35;;;;;;;17.20;9.25;;;21.30;99.90;;;;;;5035268;28;20112;-68
2022/06/22 09:02:14;;;;;;;14.82;8.35;;;21.30;99.90;;;;;;5053307;28;20051;-70
2022/06/22 09:04:44;;;;;;;12.20;8.43;;;21.40;99.90;;;;;;5058979;28;20064;-71
2022/06/22 09:07:35;;;;;;;13.55;7.97;;;21.60;99.90;;;;;;5052492;28;20044;-68
2022/06/22 09:10:42;;;;;;;11.77;7.50;;;21.80;99.90;;;;;;5051380;28;20469;-72
2022/06/22 09:13:29;;;;;;;11.63;8.23;;;21.90;99.90;;;;;;5018641;28;20358;-70
2022/06/22 09:16:13;;;;;;;15.90;8.48;;;22.00;99.90;;;;;;5053371;28;20051;-69
2022/06/22 09:18:45;;;;;;;11.07;7.53;;;21.90;99.90;;;;;;5052688;28;20129;-69
2022/06/22 09:21:19;;;;;;;11.93;8.30;;;22.10;99.90;;;;;;5053062;28;20045;-68
2022/06/22 09:24:13;;;;;;;11.68;7.82;;;22.20;99.90;;;;;;5049792;28;20028;-68
2022/06/22 09:27:11;;;;;;;12.07;7.97;;;22.20;99.90;;;;;;5053218;28;20099;-68
2022/06/22 09:30:04;;;;;;;12.90;7.55;;;22.40;99.90;;;;;;5058648;28;20044;-67
2022/06/22 09:32:36;;;;;;;12.95;7.20;;;22.60;99.90;;;;;;5043958;28;20048;-69
2022/06/22 09:35:26;;;;;;;12.32;6.93;;;22.80;99.90;;;;;;5046463;28;20059;-68
2022/06/22 09:37:58;;;;;;;8.47;5.90;;;22.70;99.90;;;;;;5056735;28;20362;-67
2022/06/22 09:40:27;;;;;;;9.07;6.03;;;22.50;99.90;;;;;;5052957;28;20323;-67
2022/06/22 09:43:25;;;;;;;9.88;6.30;;;22.60;99.90;;;;;;5050399;28;20536;-67
2022/06/22 09:46:36;;;;;;;13.57;6.50;;;22.80;99.80;;;;;;5035931;28;20053;-67
2022/06/22 09:49:25;;;;;;;7.78;5.57;;;22.40;99.90;;;;;;5052239;28;20485;-68
2022/06/22 09:52:27;;;;;;;10.15;6.03;;;22.60;99.90;;;;;;5052521;28;20049;-67
2022/06/22 09:58:15;;;;;;;10.65;5.93;;;23.20;98.10;;;;;;5053024;28;20378;-67
2022/06/22 10:01:02;;;;;;;8.95;5.75;;;23.00;92.30;;;;;;5052386;28;20549;-67
2022/06/22 10:03:51;;;;;;;9.23;6.20;;;23.20;93.60;;;;;;5049110;28;20075;-67
2022/06/22 10:06:43;;;;;;;11.93;7.18;;;23.80;93.50;;;;;;5052452;28;20052;-67
2022/06/22 10:09:25;;;;;;;;;;;24.30;94.80;;;;;;5052245;28;20071;-67
2022/06/22 10:12:32;;;;;;;7.40;6.32;;;24.50;91.80;;;;;;5052230;28;19963;-67
2022/06/22 10:15:33;;;;;;;10.68;7.25;;;24.80;88.20;;;;;;5028680;28;20134;-67
2022/06/22 10:18:02;;;;;;;9.30;6.53;;;24.90;91.30;;;;;;5046627;28;20075;-67
2022/06/22 10:20:43;;;;;;;9.60;6.40;;;24.90;90.00;;;;;;5051908;28;20489;-67
2022/06/22 10:23:37;;;;;;;12.52;6.72;;;24.60;89.70;;;;;;5026732;28;20060;-68
2022/06/22 10:26:47;;;;;;;9.52;6.85;;;24.20;83.20;;;;;;5024224;28;20068;-67
2022/06/22 10:29:25;;;;;;;12.35;6.88;;;23.80;85.30;;;;;;5037964;28;20110;-67
2022/06/22 10:32:38;;;;;;;11.02;5.97;;;23.70;89.70;;;;;;5035147;28;20052;-67
2022/06/22 10:35:22;;;;;;;10.35;6.60;;;24.00;91.10;;;;;;5049024;28;20080;-68
2022/06/22 10:38:21;;;;;;;9.73;6.47;;;23.80;89.50;;;;;;5034129;28;20462;-67
2022/06/22 10:47:28;;;;;;;15.40;7.53;;;23.30;91.40;;;;;;5051585;28;20049;-67
2022/06/22 10:50:03;;;;;;;14.85;7.75;;;23.40;90.90;;;;;;5051199;28;20561;-67
2022/06/22 10:52:55;;;;;;;11.10;8.02;;;23.60;90.40;;;;;;5050298;28;20041;-69
2022/06/22 10:55:42;;;;;;;13.70;7.63;;;23.80;89.10;;;;;;5042607;28;20052;-67
2022/06/22 10:58:10;;;;;;;11.13;7.22;;;24.40;86.50;;;;;;5033452;28;20080;-67
2022/06/22 11:01:00;;;;;;;10.93;7.43;;;24.40;88.70;;;;;;5021518;28;20044;-68
2022/06/22 11:03:41;;;;;;;12.73;7.03;;;24.60;88.20;;;;;;5052520;28;20424;-69
2022/06/22 11:06:45;;;;;;;11.13;6.43;;;24.90;85.00;;;;;;5039072;28;20486;-68
2022/06/22 11:09:48;;;;;;;12.35;7.18;;;25.10;79.70;;;;;;5050297;28;20092;-68
2022/06/22 11:12:29;;;;;;;11.55;8.02;;;24.90;82.30;;;;;;5051092;28;20044;-67
2022/06/22 11:15:24;;;;;;;12.03;6.53;;;24.90;79.70;;;;;;5071075;28;20392;-69
2022/06/22 11:17:53;;;;;;;11.52;6.60;;;25.20;77.40;;;;;;5064197;28;20123;-69
2022/06/22 11:20:37;;;;;;;10.48;6.32;;;25.40;80.20;;;;;;5048599;28;20441;-68
2022/06/22 11:23:12;;;;;;;10.02;6.15;;;25.40;76.70;;;;;;5052432;28;20447;-67
2022/06/22 11:31:42;;;;;;;8.40;5.70;;;25.60;69.70;;;;;;5050804;28;20080;-67
2022/06/22 11:34:40;;;;;;;11.30;5.45;;;25.70;71.80;;;;;;5062727;28;20033;-67
2022/06/22 11:37:24;;;;;;;10.15;4.47;;;25.90;69.60;;;;;;5050780;28;20040;-67
2022/06/22 11:40:31;;;;;;;9.23;4.75;;;26.20;68.20;;;;;;5050353;28;20076;-67
2022/06/22 11:43:13;;;;;;;11.27;4.82;;;26.30;66.90;;;;;;5049886;28;20167;-68
2022/06/22 11:46:12;;;;;;;11.30;5.03;;;26.30;66.90;;;;;;5056105;28;20052;-67
2022/06/22 11:49:22;;;;;;;8.73;4.38;;;26.30;62.30;;;;;;5050147;28;20079;-67
2022/06/22 11:52:16;;;;;;;7.93;4.03;;;26.50;64.50;;;;;;5033902;28;20045;-67
2022/06/22 11:54:51;;;;;;;6.68;3.50;;;26.60;64.10;;;;;;5058767;28;20381;-67
2022/06/22 11:57:29;;;;;;;8.63;4.15;;;26.60;63.20;;;;;;5050252;28;20386;-67
2022/06/22 12:00:06;;;;;;;7.15;4.03;;;27.00;63.00;;;;;;5033975;28;20116;-67
2022/06/22 12:02:54;;;;;;;5.90;3.97;;;27.20;61.10;;;;;;5049684;28;20102;-71
2022/06/22 12:05:45;;;;;;;6.80;3.92;;;27.30;60.20;;;;;;5051677;28;20047;-67
2022/06/22 12:08:51;;;;;;;7.32;3.72;;;27.20;56.50;;;;;;5076690;28;20428;-68
2022/06/22 12:11:30;;;;;;;8.60;4.53;;;27.40;59.50;;;;;;5070005;28;20056;-67
2022/06/22 12:16:53;;;;;;;6.32;3.97;;;26.90;60.30;;;;;;5077087;28;20048;-68
2022/06/22 12:19:37;;;;;;;8.18;3.75;;;27.00;60.20;;;;;;5076705;28;20047;-69
2022/06/22 12:22:03;;;;;;;6.75;3.90;;;27.20;59.50;;;;;;5076683;28;20473;-68
2022/06/22 12:24:48;;;;;;;6.00;3.88;;;27.20;59.30;;;;;;5075219;28;20043;-68
2022/06/22 12:27:20;;;;;;;5.95;3.80;;;27.60;56.50;;;;;;5052086;28;20048;-68
2022/06/22 12:29:58;;;;;;;4.97;3.47;;;27.60;59.20;;;;;;5072537;28;20076;-67
2022/06/22 12:32:31;;;;;;;5.63;3.53;;;28.20;57.60;;;;;;5076766;28;20045;-68
2022/06/22 12:35:17;;;;;;;5.07;3.60;;;28.10;57.70;;;;;;5071685;28;20059;-68
2022/06/22 12:37:50;;;;;;;8.43;3.63;;;28.10;57.50;;;;;;5046104;28;20048;-68
2022/06/22 12:40:48;;;;;;;9.88;4.47;;;28.30;57.20;;;;;;5076699;28;20052;-68
2022/06/22 12:43:32;;;;;;;6.43;3.03;;;28.10;55.10;;;;;;5074558;28;20079;-67
2022/06/22 12:46:22;;;;;;;6.32;3.70;;;28.50;54.90;;;;;;5076798;28;20048;-68
2022/06/22 12:49:00;;;;;;;7.22;3.72;;;28.60;53.20;;;;;;5076409;28;20052;-68
2022/06/22 12:51:41;;;;;;;6.60;3.63;;;28.50;55.20;;;;;;5053199;28;20052;-68
2022/06/22 12:54:13;;;;;;;9.10;3.30;;;28.70;54.50;;;;;;5054479;28;20195;-68
2022/06/22 12:57:05;;;;;;;7.07;3.28;;;29.10;55.40;;;;;;5050327;28;20088;-68
2022/06/22 12:59:42;;;;;;;5.28;3.08;;;29.70;52.20;;;;;;5062984;28;20040;-66
2022/06/22 13:02:13;;;;;;;6.57;3.40;;;29.60;53.50;;;;;;5059619;28;20070;-66
2022/06/22 13:04:41;;;;;;;4.65;2.72;;;29.70;53.70;;;;;;5066281;28;20075;-67
2022/06/22 13:07:12;;;;;;;5.75;3.42;;;30.00;53.80;;;;;;5056409;28;20096;-67
2022/06/22 13:09:39;;;;;;;5.72;3.13;;;30.30;52.40;;;;;;5039027;28;20539;-65
2022/06/22 13:12:40;;;;;;;5.60;3.78;;;30.30;52.30;;;;;;5039276;28;20465;-66
2022/06/22 13:15:21;;;;;;;7.25;3.65;;;30.50;49.20;;;;;;5041066;28;20048;-65
2022/06/22 13:18:15;;;;;;;7.82;4.20;;;30.80;51.20;;;;;;5047904;28;20063;-66
2022/06/22 13:21:01;;;;;;;6.63;3.78;;;30.90;50.70;;;;;;5040505;28;20037;-66
2022/06/22 13:24:21;;;;;;;6.90;3.78;;;30.60;51.50;;;;;;5040080;28;20094;-65
2022/06/22 13:27:00;;;;;;;5.40;3.50;;;30.80;50.80;;;;;;4978672;28;20047;-67
2022/06/22 13:29:53;;;;;;;7.47;4.05;;;30.90;51.20;;;;;;5052519;28;20044;-69
2022/06/22 13:32:23;;;;;;;6.72;3.92;;;31.10;51.20;;;;;;5043632;28;20045;-70
2022/06/22 13:35:03;;;;;;;6.18;3.80;;;31.50;52.10;;;;;;5032273;28;20099;-70
2022/06/22 13:38:05;;;;;;;7.38;4.53;;;31.60;48.80;;;;;;5032988;28;20127;-68
2022/06/22 13:40:58;;;;;;;6.65;4.90;;;31.80;49.60;;;;;;5037357;28;20033;-70
2022/06/22 13:44:07;;;;;;;7.50;4.00;;;32.00;48.20;;;;;;5044916;28;20041;-68
2022/06/22 13:47:06;;;;;;;6.85;3.80;;;32.00;48.90;;;;;;5052073;28;20442;-67
2022/06/22 13:49:53;;;;;;;7.35;3.85;;;32.20;48.00;;;;;;5050289;28;20057;-71
2022/06/22 13:52:35;;;;;;;5.22;3.70;;;32.20;49.60;;;;;;5050129;28;20041;-68
2022/06/22 13:55:27;;;;;;;6.43;3.83;;;32.60;50.00;;;;;;5052794;28;20048;-75
2022/06/22 13:58:17;;;;;;;8.07;4.68;;;33.10;47.80;;;;;;5052092;28;20040;-71
2022/06/22 14:00:58;;;;;;;6.88;4.35;;;32.90;46.10;;;;;;5059171;28;20140;-70
2022/06/22 14:03:47;;;;;;;7.60;4.60;;;33.20;48.60;;;;;;5057153;28;20061;-73
2022/06/22 14:06:38;;;;;;;9.13;4.70;;;33.20;47.60;;;;;;5057315;28;20106;-71
2022/06/22 14:09:25;;;;;;;6.35;4.47;;;33.50;47.10;;;;;;5073349;28;20059;-71
2022/06/22 14:12:07;;;;;;;8.20;4.55;;;33.90;47.30;;;;;;5056262;28;20051;-71
2022/06/22 14:15:02;;;;;;;7.80;4.13;;;33.90;47.20;;;;;;5065999;28;20047;-73